createdAt,value
2018-05-06T00:02:07.717Z,94746.05
2018-05-06T00:04:34.344Z,94750.53
2018-05-06T00:07:01.112Z,94750.97
2018-05-06T00:09:27.703Z,94747.17
2018-05-06T00:11:54.409Z,94742.52
2018-05-06T00:14:21.035Z,94734.92
2018-05-06T00:16:47.639Z,94726.59
2018-05-06T00:19:14.312Z,94727.19
2018-05-06T00:21:40.940Z,94722.84
2018-05-06T00:24:07.626Z,94719.48
2018-05-06T00:26:34.225Z,94723.48
2018-05-06T00:29:00.901Z,94725.14
2018-05-06T00:31:27.537Z,94726.16
2018-05-06T00:33:54.221Z,94734.92
2018-05-06T00:36:20.838Z,94741.41
2018-05-06T00:38:47.474Z,94736.64
2018-05-06T00:41:14.157Z,94739.30
2018-05-06T00:43:40.819Z,94736.86
2018-05-06T00:46:07.421Z,94730.00
2018-05-06T00:48:34.046Z,94728.88
2018-05-06T00:51:00.812Z,94730.06
2018-05-06T00:53:27.515Z,94725.78
2018-05-06T00:55:54.173Z,94729.05
2018-05-06T00:58:20.770Z,94723.11
2018-05-06T01:00:47.465Z,94722.88
2018-05-06T01:03:14.059Z,94730.38
2018-05-06T01:05:40.773Z,94721.66
2018-05-06T01:08:07.399Z,94724.33
2018-05-06T01:10:34.038Z,94719.41
2018-05-06T01:13:00.710Z,94721.55
2018-05-06T01:15:27.315Z,94724.70
2018-05-06T01:17:53.987Z,94720.71
2018-05-06T01:20:20.619Z,94727.92
2018-05-06T01:22:47.264Z,94728.50
2018-05-06T01:25:13.941Z,94733.59
2018-05-06T01:27:40.564Z,94730.20
2018-05-06T01:30:07.203Z,94727.80
2018-05-06T01:32:33.830Z,94726.85
2018-05-06T01:35:00.467Z,94717.38
2018-05-06T01:37:27.065Z,94711.56
2018-05-06T01:39:53.711Z,94713.22
2018-05-06T01:42:20.402Z,94711.19
2018-05-06T01:44:47.147Z,94708.30
2018-05-06T01:47:13.815Z,94709.86
2018-05-06T01:49:40.426Z,94706.64
2018-05-06T01:52:07.093Z,94706.84
2018-05-06T01:54:33.708Z,94707.22
2018-05-06T01:57:00.379Z,94709.28
2018-05-06T01:59:26.974Z,94712.95
2018-05-06T02:01:53.619Z,94709.59
2018-05-06T02:04:20.249Z,94705.95
2018-05-06T02:06:46.924Z,94714.28
2018-05-06T02:09:13.558Z,94710.93
2018-05-06T02:11:40.246Z,94709.80
2018-05-06T02:14:06.878Z,94710.23
2018-05-06T02:16:33.551Z,94712.52
2018-05-06T02:19:00.190Z,94716.11
2018-05-06T02:21:26.891Z,94717.70
2018-05-06T02:23:53.491Z,94723.63
2018-05-06T02:26:20.221Z,94709.25
2018-05-06T02:28:46.855Z,94708.30
2018-05-06T02:31:13.482Z,94701.52
2018-05-06T02:33:40.163Z,94697.81
2018-05-06T02:36:06.787Z,94698.05
2018-05-06T02:38:33.428Z,94696.86
2018-05-06T02:41:00.054Z,94696.16
2018-05-06T02:43:26.698Z,94696.59
2018-05-06T02:45:53.341Z,94699.58
2018-05-06T02:48:19.990Z,94697.61
2018-05-06T02:50:46.621Z,94700.12
2018-05-06T02:53:13.291Z,94700.83
2018-05-06T02:55:39.905Z,94694.98
2018-05-06T02:58:06.587Z,94701.34
2018-05-06T03:00:33.224Z,94703.17
2018-05-06T03:02:59.862Z,94707.02
2018-05-06T03:05:26.532Z,94701.47
2018-05-06T03:07:53.172Z,94706.27
2018-05-06T03:10:19.845Z,94705.95
2018-05-06T03:12:46.507Z,94706.84
2018-05-06T03:15:13.150Z,94710.27
2018-05-06T03:17:39.812Z,94711.56
2018-05-06T03:20:06.448Z,94708.41
2018-05-06T03:22:33.089Z,94711.06
2018-05-06T03:24:59.729Z,94709.51
2018-05-06T03:27:26.410Z,94708.12
2018-05-06T03:29:53.082Z,94707.54
2018-05-06T03:32:19.747Z,94716.51
2018-05-06T03:34:46.461Z,94713.47
2018-05-06T03:37:13.131Z,94711.77
2018-05-06T03:39:39.764Z,94719.08
2018-05-06T03:42:06.435Z,94712.14
2018-05-06T03:44:33.112Z,94712.57
2018-05-06T03:46:59.709Z,94704.64
2018-05-06T03:49:26.373Z,94705.27
2018-05-06T03:51:52.985Z,94704.58
2018-05-06T03:54:19.649Z,94711.44
2018-05-06T03:56:46.285Z,94713.16
2018-05-06T03:59:12.888Z,94715.23
2018-05-06T04:01:40.540Z,94709.30
2018-05-06T04:04:07.167Z,94715.99
2018-05-06T04:06:33.847Z,94715.35
2018-05-06T04:09:00.506Z,94717.67
2018-05-06T04:11:27.149Z,94715.84
2018-05-06T04:13:53.778Z,94717.70
2018-05-06T04:16:20.488Z,94721.29
2018-05-06T04:18:47.121Z,94726.09
2018-05-06T04:21:13.865Z,94726.06
2018-05-06T04:23:43.292Z,94732.58
2018-05-06T04:26:10.021Z,94731.30
2018-05-06T04:28:36.647Z,94739.98
2018-05-06T04:31:03.332Z,94739.41
2018-05-06T04:33:29.986Z,94745.08
2018-05-06T04:35:56.585Z,94740.61
2018-05-06T04:38:23.224Z,94742.64
2018-05-06T04:40:49.898Z,94740.04
2018-05-06T04:43:16.630Z,94741.55
2018-05-06T04:45:43.341Z,94750.90
2018-05-06T04:48:10.016Z,94749.88
2018-05-06T04:50:36.697Z,94747.36
2018-05-06T04:53:03.336Z,94747.63
2018-05-06T04:55:29.929Z,94746.47
2018-05-06T04:57:56.574Z,94745.17
2018-05-06T05:00:23.251Z,94751.28
2018-05-06T05:02:49.918Z,94758.55
2018-05-06T05:05:16.557Z,94753.98
2018-05-06T05:07:43.226Z,94751.66
2018-05-06T05:10:09.893Z,94755.19
2018-05-06T05:12:36.523Z,94758.72
2018-05-06T05:15:03.161Z,94760.38
2018-05-06T05:17:29.830Z,94754.93
2018-05-06T05:19:56.504Z,94764.95
2018-05-06T05:22:23.105Z,94761.73
2018-05-06T05:24:49.799Z,94759.24
2018-05-06T05:27:16.464Z,94761.91
2018-05-06T05:29:43.107Z,94757.30
2018-05-06T05:32:09.772Z,94761.47
2018-05-06T05:34:36.416Z,94761.00
2018-05-06T05:37:03.093Z,94763.61
2018-05-06T05:39:29.688Z,94768.91
2018-05-06T05:41:56.457Z,94778.94
2018-05-06T05:44:23.051Z,94774.53
2018-05-06T05:46:49.656Z,94772.50
2018-05-06T05:49:16.292Z,94776.24
2018-05-06T05:51:42.982Z,94778.39
2018-05-06T05:54:09.654Z,94779.77
2018-05-06T05:56:36.279Z,94775.38
2018-05-06T05:59:02.929Z,94775.75
2018-05-06T06:01:29.564Z,94775.66
2018-05-06T06:03:56.197Z,94772.27
2018-05-06T06:06:22.920Z,94773.64
2018-05-06T06:08:49.605Z,94775.67
2018-05-06T06:11:16.198Z,94773.20
2018-05-06T06:13:42.903Z,94778.65
2018-05-06T06:16:09.509Z,94775.98
2018-05-06T06:18:36.178Z,94775.87
2018-05-06T06:21:02.825Z,94773.84
2018-05-06T06:23:29.457Z,94773.09
2018-05-06T06:25:56.089Z,94765.00
2018-05-06T06:28:22.773Z,94767.45
2018-05-06T06:30:49.443Z,94766.50
2018-05-06T06:33:16.050Z,94776.09
2018-05-06T06:35:42.725Z,94772.56
2018-05-06T06:38:09.390Z,94771.26
2018-05-06T06:40:36.083Z,94775.29
2018-05-06T06:43:02.712Z,94773.46
2018-05-06T06:45:29.376Z,94774.59
2018-05-06T06:47:56.046Z,94774.22
2018-05-06T06:50:22.681Z,94770.86
2018-05-06T06:52:49.329Z,94772.13
2018-05-06T06:55:16.050Z,94768.98
2018-05-06T06:57:42.655Z,94770.11
2018-05-06T07:00:09.323Z,94772.31
2018-05-06T07:02:35.964Z,94784.84
2018-05-06T07:05:02.635Z,94780.67
2018-05-06T07:07:29.266Z,94778.94
2018-05-06T07:09:55.901Z,94784.81
2018-05-06T07:12:22.505Z,94786.70
2018-05-06T07:14:49.177Z,94786.81
2018-05-06T07:17:15.813Z,94782.73
2018-05-06T07:19:42.482Z,94784.31
2018-05-06T07:22:09.115Z,94782.34
2018-05-06T07:24:35.756Z,94782.36
2018-05-06T07:27:02.389Z,94781.23
2018-05-06T07:29:29.052Z,94774.72
2018-05-06T07:31:55.710Z,94781.92
2018-05-06T07:34:22.345Z,94775.42
2018-05-06T07:36:49.007Z,94781.81
2018-05-06T07:39:15.648Z,94783.19
2018-05-06T07:41:42.317Z,94782.48
2018-05-06T07:44:08.953Z,94779.02
2018-05-06T07:46:35.586Z,94779.33
2018-05-06T07:49:02.233Z,94777.84
2018-05-06T07:51:28.887Z,94775.98
2018-05-06T07:53:55.545Z,94777.80
2018-05-06T07:56:22.176Z,94780.61
2018-05-06T07:58:48.930Z,94779.66
2018-05-06T08:01:15.556Z,94780.67
2018-05-06T08:03:42.192Z,94781.11
2018-05-06T08:06:08.877Z,94775.35
2018-05-06T08:08:35.475Z,94781.87
2018-05-06T08:11:02.153Z,94775.88
2018-05-06T08:13:28.779Z,94774.66
2018-05-06T08:15:55.450Z,94773.64
2018-05-06T08:18:22.065Z,94775.75
2018-05-06T08:20:48.745Z,94772.45
2018-05-06T08:23:15.382Z,94772.34
2018-05-06T08:25:42.099Z,94762.86
2018-05-06T08:28:08.693Z,94765.19
2018-05-06T08:30:35.379Z,94769.44
2018-05-06T08:33:02.014Z,94763.91
2018-05-06T08:35:28.691Z,94761.53
2018-05-06T08:37:55.341Z,94763.50
2018-05-06T08:40:21.970Z,94766.34
2018-05-06T08:42:48.661Z,94759.25
2018-05-06T08:45:15.291Z,94758.75
2018-05-06T08:47:41.886Z,94760.69
2018-05-06T08:50:08.538Z,94755.21
2018-05-06T08:52:35.277Z,94752.77
2018-05-06T08:55:01.885Z,94759.03
2018-05-06T08:57:28.552Z,94753.56
2018-05-06T08:59:55.193Z,94752.16
2018-05-06T09:02:21.841Z,94751.14
2018-05-06T09:04:48.481Z,94747.35
2018-05-06T09:07:15.174Z,94745.52
2018-05-06T09:09:41.845Z,94747.47
2018-05-06T09:12:08.493Z,94733.80
2018-05-06T09:14:35.134Z,94727.44
2018-05-06T09:17:01.843Z,94726.48
2018-05-06T09:19:28.444Z,94726.75
2018-05-06T09:21:55.121Z,94719.59
2018-05-06T09:24:21.731Z,94715.80
2018-05-06T09:26:49.795Z,94711.55
2018-05-06T09:29:15.069Z,94710.67
2018-05-06T09:31:41.720Z,94706.74
2018-05-06T09:34:11.145Z,94699.31
2018-05-06T09:36:37.778Z,94709.20
2018-05-06T09:39:04.391Z,94702.39
2018-05-06T09:41:31.026Z,94695.75
2018-05-06T09:43:57.706Z,94692.93
2018-05-06T09:46:24.337Z,94691.84
2018-05-06T09:48:50.975Z,94693.11
2018-05-06T09:51:17.616Z,94688.59
2018-05-06T09:53:44.298Z,94685.96
2018-05-06T09:56:10.891Z,94676.70
2018-05-06T09:58:37.572Z,94679.59
2018-05-06T10:01:04.167Z,94680.22
2018-05-06T10:03:30.809Z,94677.88
2018-05-06T10:05:57.439Z,94673.07
2018-05-06T10:08:24.088Z,94668.21
2018-05-06T10:10:50.719Z,94671.48
2018-05-06T10:13:17.362Z,94668.45
2018-05-06T10:15:44.020Z,94666.54
2018-05-06T10:18:10.678Z,94655.68
2018-05-06T10:20:37.283Z,94651.63
2018-05-06T10:23:03.921Z,94646.09
2018-05-06T10:25:30.560Z,94646.05
2018-05-06T10:27:57.202Z,94651.72
2018-05-06T10:30:23.922Z,94642.27
2018-05-06T10:32:50.525Z,94642.48
2018-05-06T10:35:17.197Z,94640.53
2018-05-06T10:37:43.830Z,94640.66
2018-05-06T10:40:10.458Z,94631.17
2018-05-06T10:42:37.096Z,94639.09
2018-05-06T10:45:03.699Z,94635.79
2018-05-06T10:47:30.369Z,94636.87
2018-05-06T10:49:56.970Z,94635.08
2018-05-06T10:52:23.609Z,94633.80
2018-05-06T10:54:50.280Z,94632.61
2018-05-06T10:57:16.921Z,94629.70
2018-05-06T10:59:43.556Z,94628.17
2018-05-06T11:02:10.171Z,94626.47
2018-05-06T11:04:36.841Z,94622.56
2018-05-06T11:07:03.502Z,94616.72
2018-05-06T11:09:30.103Z,94617.05
2018-05-06T11:11:56.762Z,94617.12
2018-05-06T11:14:23.537Z,94620.95
2018-05-06T11:16:50.173Z,94616.56
2018-05-06T11:19:16.808Z,94617.12
2018-05-06T11:21:43.509Z,94610.58
2018-05-06T11:24:10.146Z,94625.70
2018-05-06T11:26:36.782Z,94619.23
2018-05-06T11:29:03.464Z,94623.69
2018-05-06T11:31:30.065Z,94623.03
2018-05-06T11:33:56.721Z,94619.22
2018-05-06T11:36:23.396Z,94617.66
2018-05-06T11:38:50.002Z,94623.91
2018-05-06T11:41:16.640Z,94624.69
2018-05-06T11:43:43.282Z,94632.91
2018-05-06T11:46:09.910Z,94638.14
2018-05-06T11:48:36.544Z,94639.55
2018-05-06T11:51:03.187Z,94640.75
2018-05-06T11:53:29.826Z,94620.99
2018-05-06T11:55:56.488Z,94637.10
2018-05-06T11:58:23.140Z,94630.27
2018-05-06T12:00:49.734Z,94631.28
2018-05-06T12:03:16.407Z,94622.01
2018-05-06T12:05:43.010Z,94630.13
2018-05-06T12:08:09.682Z,94621.55
2018-05-06T12:10:36.313Z,94618.97
2018-05-06T12:13:02.956Z,94622.88
2018-05-06T12:15:29.591Z,94622.72
2018-05-06T12:17:56.221Z,94611.26
2018-05-06T12:20:22.821Z,94605.55
2018-05-06T12:22:49.461Z,94612.32
2018-05-06T12:25:16.141Z,94604.73
2018-05-06T12:27:42.773Z,94594.09
2018-05-06T12:30:09.374Z,94595.91
2018-05-06T12:32:36.016Z,94587.14
2018-05-06T12:35:02.655Z,94566.11
2018-05-06T12:37:29.314Z,94581.20
2018-05-06T12:39:55.961Z,94579.97
2018-05-06T12:42:22.558Z,94579.41
2018-05-06T12:44:49.185Z,94589.11
2018-05-06T12:47:15.873Z,94585.23
2018-05-06T12:49:42.478Z,94573.99
2018-05-06T12:52:09.209Z,94578.25
2018-05-06T12:54:35.837Z,94572.72
2018-05-06T12:57:02.508Z,94576.70
2018-05-06T12:59:29.110Z,94570.83
2018-05-06T13:01:55.749Z,94575.71
2018-05-06T13:04:22.393Z,94571.03
2018-05-06T13:06:49.033Z,94568.02
2018-05-06T13:09:15.669Z,94563.20
2018-05-06T13:11:42.375Z,94564.26
2018-05-06T13:14:09.039Z,94557.08
2018-05-06T13:16:35.645Z,94555.09
2018-05-06T13:19:02.328Z,94557.57
2018-05-06T13:21:28.951Z,94560.09
2018-05-06T13:23:55.588Z,94552.69
2018-05-06T13:26:22.257Z,94553.33
2018-05-06T13:28:51.757Z,94540.44
2018-05-06T13:31:18.405Z,94552.38
2018-05-06T13:33:45.003Z,94555.43
2018-05-06T13:36:11.720Z,94554.38
2018-05-06T13:38:38.411Z,94542.50
2018-05-06T13:41:05.051Z,94542.27
2018-05-06T13:43:31.722Z,94538.86
2018-05-06T13:45:58.353Z,94539.42
2018-05-06T13:48:24.978Z,94538.33
2018-05-06T13:50:51.696Z,94540.62
2018-05-06T13:53:18.337Z,94542.27
2018-05-06T13:55:44.941Z,94540.02
2018-05-06T13:58:11.604Z,94537.42
2018-05-06T14:00:38.215Z,94536.34
2018-05-06T14:03:04.908Z,94533.30
2018-05-06T14:05:31.537Z,94541.70
2018-05-06T14:07:58.165Z,94528.56
2018-05-06T14:10:24.850Z,94533.75
2018-05-06T14:12:52.765Z,94529.23
2018-05-06T14:15:18.122Z,94536.23
2018-05-06T14:17:44.763Z,94536.14
2018-05-06T14:20:11.396Z,94526.91
2018-05-06T14:22:38.066Z,94536.23
2018-05-06T14:25:04.695Z,94542.23
2018-05-06T14:27:31.332Z,94542.08
2018-05-06T14:29:57.964Z,94538.97
2018-05-06T14:32:24.607Z,94545.55
2018-05-06T14:34:51.282Z,94547.80
2018-05-06T14:37:17.884Z,94549.03
2018-05-06T14:39:44.518Z,94543.31
2018-05-06T14:42:11.188Z,94547.16
2018-05-06T14:44:37.825Z,94550.13
2018-05-06T14:47:04.459Z,94553.13
2018-05-06T14:49:31.068Z,94551.90
2018-05-06T14:51:57.731Z,94556.95
2018-05-06T14:54:24.373Z,94555.43
2018-05-06T14:56:51.008Z,94556.84
2018-05-06T14:59:17.645Z,94558.91
2018-05-06T15:01:44.245Z,94552.08
2018-05-06T15:04:10.884Z,94548.32
2018-05-06T15:06:37.524Z,94548.17
2018-05-06T15:09:04.158Z,94547.48
2018-05-06T15:11:30.837Z,94551.53
2018-05-06T15:13:57.439Z,94551.05
2018-05-06T15:16:24.113Z,94558.87
2018-05-06T15:18:50.711Z,94562.34
2018-05-06T15:21:17.385Z,94560.98
2018-05-06T15:23:44.026Z,94557.23
2018-05-06T15:26:10.730Z,94563.48
2018-05-06T15:28:37.400Z,94564.91
2018-05-06T15:31:04.005Z,94564.31
2018-05-06T15:33:30.674Z,94573.96
2018-05-06T15:35:57.344Z,94568.41
2018-05-06T15:38:23.980Z,94567.47
2018-05-06T15:40:50.652Z,94569.06
2018-05-06T15:43:17.430Z,94572.20
2018-05-06T15:45:44.027Z,94579.14
2018-05-06T15:48:10.706Z,94587.28
2018-05-06T15:50:37.390Z,94605.20
2018-05-06T15:53:03.981Z,94619.05
2018-05-06T15:55:30.653Z,94603.34
2018-05-06T15:58:00.022Z,94601.99
2018-05-06T16:00:26.665Z,94604.46
2018-05-06T16:02:53.297Z,94608.43
2018-05-06T16:05:19.902Z,94612.05
2018-05-06T16:07:46.535Z,94616.50
2018-05-06T16:10:13.247Z,94630.92
2018-05-06T16:12:39.880Z,94634.39
2018-05-06T16:15:06.521Z,94638.19
2018-05-06T16:17:33.147Z,94647.48
2018-05-06T16:19:59.799Z,94640.91
2018-05-06T16:22:26.508Z,94650.95
2018-05-06T16:24:53.063Z,94657.47
2018-05-06T16:27:19.709Z,94667.69
2018-05-06T16:29:49.136Z,94666.76
2018-05-06T16:32:15.808Z,94669.02
2018-05-06T16:34:42.481Z,94662.50
2018-05-06T16:37:09.161Z,94668.84
2018-05-06T16:39:35.764Z,94675.90
2018-05-06T16:42:02.405Z,94669.27
2018-05-06T16:44:29.069Z,94680.91
2018-05-06T16:46:55.711Z,94678.44
2018-05-06T16:49:22.381Z,94685.50
2018-05-06T16:51:48.988Z,94705.02
2018-05-06T16:54:15.655Z,94728.49
2018-05-06T16:56:42.299Z,94703.52
2018-05-06T16:59:08.932Z,94673.80
2018-05-06T17:01:35.561Z,94681.69
2018-05-06T17:04:02.279Z,94696.11
2018-05-06T17:06:28.902Z,94727.86
2018-05-06T17:08:55.615Z,94774.73
2018-05-06T17:11:22.210Z,94812.07
2018-05-06T17:13:48.898Z,94844.60
2018-05-06T17:16:15.531Z,94858.50
2018-05-06T17:18:42.167Z,94854.38
2018-05-06T17:21:08.840Z,94866.17
2018-05-06T17:23:35.521Z,94875.38
2018-05-06T17:26:02.205Z,94880.65
2018-05-06T17:28:28.808Z,94891.21
2018-05-06T17:30:55.440Z,94880.27
2018-05-06T17:33:22.146Z,94878.33
2018-05-06T17:35:48.753Z,94891.05
2018-05-06T17:38:15.435Z,94883.47
2018-05-06T17:40:42.065Z,94879.61
2018-05-06T17:43:08.746Z,94883.27
2018-05-06T17:45:35.408Z,94876.44
2018-05-06T17:48:02.055Z,94891.03
2018-05-06T17:50:28.692Z,94885.52
2018-05-06T17:52:55.367Z,94888.70
2018-05-06T17:55:21.965Z,94891.82
2018-05-06T17:57:48.650Z,94880.05
2018-05-06T18:00:15.285Z,94875.33
2018-05-06T18:02:41.950Z,94868.88
2018-05-06T18:05:08.596Z,94862.52
2018-05-06T18:07:35.273Z,94857.29
2018-05-06T18:10:04.794Z,94850.61
2018-05-06T18:12:31.468Z,94860.40
2018-05-06T18:14:58.063Z,94861.41
2018-05-06T18:17:24.690Z,94862.06
2018-05-06T18:19:51.372Z,94858.16
2018-05-06T18:22:17.966Z,94858.75
2018-05-06T18:24:44.733Z,94857.13
2018-05-06T18:27:11.305Z,94854.93
2018-05-06T18:29:37.935Z,94843.06
2018-05-06T18:32:04.536Z,94831.45
2018-05-06T18:34:31.174Z,94829.41
2018-05-06T18:36:57.839Z,94825.87
2018-05-06T18:39:24.485Z,94824.05
2018-05-06T18:41:51.153Z,94821.26
2018-05-06T18:44:17.751Z,94831.39
2018-05-06T18:46:44.451Z,94824.55
2018-05-06T18:49:11.060Z,94823.67
2018-05-06T18:51:37.690Z,94826.58
2018-05-06T18:54:04.335Z,94822.98
2018-05-06T18:56:30.973Z,94817.80
2018-05-06T18:58:57.607Z,94816.41
2018-05-06T19:01:24.293Z,94816.16
2018-05-06T19:03:50.976Z,94817.22
2018-05-06T19:06:17.615Z,94819.41
2018-05-06T19:08:44.352Z,94825.31
2018-05-06T19:11:10.990Z,94835.12
2018-05-06T19:13:37.660Z,94833.20
2018-05-06T19:16:04.287Z,94838.77
2018-05-06T19:18:30.974Z,94840.41
2018-05-06T19:20:57.576Z,94849.64
2018-05-06T19:23:24.221Z,94849.50
2018-05-06T19:25:50.890Z,94860.67
2018-05-06T19:28:17.521Z,94868.09
2018-05-06T19:30:44.182Z,94865.75
2018-05-06T19:33:10.790Z,94860.31
2018-05-06T19:35:37.432Z,94863.92
2018-05-06T19:38:04.115Z,94859.87
2018-05-06T19:40:30.753Z,94859.98
2018-05-06T19:42:57.422Z,94860.25
2018-05-06T19:45:24.085Z,94859.44
2018-05-06T19:47:50.687Z,94859.81
2018-05-06T19:50:17.352Z,94855.19
2018-05-06T19:52:43.960Z,94846.30
2018-05-06T19:55:10.581Z,94852.73
2018-05-06T19:57:37.226Z,94848.70
2018-05-06T20:00:03.899Z,94853.11
2018-05-06T20:02:30.608Z,94851.91
2018-05-06T20:04:57.202Z,94847.19
2018-05-06T20:07:23.920Z,94836.95
2018-05-06T20:09:50.478Z,94828.73
2018-05-06T20:12:17.151Z,94834.42
2018-05-06T20:14:43.753Z,94850.64
2018-05-06T20:17:10.522Z,94854.69
2018-05-06T20:19:37.280Z,94863.09
2018-05-06T20:22:03.941Z,94870.04
2018-05-06T20:24:30.533Z,94873.01
2018-05-06T20:26:57.293Z,94879.25
2018-05-06T20:29:23.892Z,94875.67
2018-05-06T20:31:50.561Z,94880.59
2018-05-06T20:34:17.195Z,94886.02
2018-05-06T20:36:43.837Z,94886.59
2018-05-06T20:39:10.517Z,94902.23
2018-05-06T20:41:37.192Z,94901.44
2018-05-06T20:44:03.823Z,94898.66
2018-05-06T20:46:30.460Z,94910.27
2018-05-06T20:48:57.064Z,94949.30
2018-05-06T20:51:23.722Z,94932.81
2018-05-06T20:53:50.401Z,94908.01
2018-05-06T20:56:17.042Z,94896.14
2018-05-06T20:58:43.685Z,94883.49
2018-05-06T21:01:10.358Z,94883.54
2018-05-06T21:03:37.074Z,94876.36
2018-05-06T21:06:03.719Z,94884.05
2018-05-06T21:08:30.392Z,94877.28
2018-05-06T21:10:57.023Z,94871.41
2018-05-06T21:13:23.705Z,94851.67
2018-05-06T21:15:50.315Z,94854.67
2018-05-06T21:18:16.951Z,94844.96
2018-05-06T21:20:43.642Z,94855.30
2018-05-06T21:23:10.284Z,94860.11
2018-05-06T21:25:36.968Z,94859.55
2018-05-06T21:28:03.632Z,94856.39
2018-05-06T21:30:30.241Z,94850.97
2018-05-06T21:32:57.690Z,94851.09
2018-05-06T21:35:26.273Z,94855.70
2018-05-06T21:37:52.949Z,94856.13
2018-05-06T21:40:19.635Z,94868.66
2018-05-06T21:42:46.247Z,94878.24
2018-05-06T21:45:12.876Z,94880.45
2018-05-06T21:47:39.563Z,94877.98
2018-05-06T21:50:06.174Z,94869.02
2018-05-06T21:52:32.846Z,94870.41
2018-05-06T21:54:59.496Z,94870.16
2018-05-06T21:59:52.849Z,94874.57
2018-05-06T22:02:19.497Z,94871.81
2018-05-06T22:04:46.229Z,94871.22
2018-05-06T22:07:12.866Z,94880.27
2018-05-06T22:09:39.566Z,94875.52
2018-05-06T22:12:06.159Z,94884.61
2018-05-06T22:14:32.843Z,94883.00
2018-05-06T22:16:59.465Z,94879.30
2018-05-06T22:19:26.145Z,94872.36
2018-05-06T22:21:52.858Z,94872.50
2018-05-06T22:24:19.499Z,94862.82
2018-05-06T22:26:46.134Z,94864.72
2018-05-06T22:29:14.798Z,94855.80
2018-05-06T22:31:41.437Z,94860.55
2018-05-06T22:34:08.180Z,94866.30
2018-05-06T22:36:34.744Z,94865.55
2018-05-06T22:39:01.414Z,94870.35
2018-05-06T22:41:28.063Z,94859.23
2018-05-06T22:43:54.734Z,94857.90
2018-05-06T22:46:21.348Z,94850.55
2018-05-06T22:48:48.023Z,94845.72
2018-05-06T22:51:14.634Z,94844.45
2018-05-06T22:53:41.272Z,94839.27
2018-05-06T22:56:08.107Z,94851.19
2018-05-06T22:58:34.872Z,94841.72
2018-05-06T23:01:01.478Z,94840.09
2018-05-06T23:03:28.159Z,94834.83
2018-05-06T23:05:54.790Z,94836.42
2018-05-06T23:08:21.494Z,94832.75
2018-05-06T23:10:48.126Z,94832.38
2018-05-06T23:13:14.846Z,94834.28
2018-05-06T23:15:44.292Z,94842.92
2018-05-06T23:18:10.933Z,94845.14
2018-05-06T23:20:37.598Z,94846.70
2018-05-06T23:23:04.248Z,94844.77
2018-05-06T23:25:30.905Z,94852.91
2018-05-06T23:27:57.581Z,94860.78
2018-05-06T23:30:24.251Z,94855.42
2018-05-06T23:32:50.912Z,94858.77
2018-05-06T23:35:17.582Z,94860.89
2018-05-06T23:37:45.582Z,94862.99
2018-05-06T23:40:10.920Z,94865.63
2018-05-06T23:42:37.558Z,94861.48
2018-05-06T23:45:04.233Z,94857.05
2018-05-06T23:47:30.877Z,94857.69
2018-05-06T23:49:57.525Z,94864.78
2018-05-06T23:52:24.197Z,94865.46
2018-05-06T23:54:50.850Z,94865.20
2018-05-06T23:57:17.492Z,94867.23
2018-05-06T23:59:44.131Z,94855.73
